Time;durP1;ratioP1;P1;durP2;ratioP2;P2;SDS_P1;SDS_P2;PMS_P1;PMS_P2;Temp;Humidity;BMP_temperature;BMP_pressure;BME280_temperature;BME280_humidity;BME280_pressure;Samples;Min_cycle;Max_cycle;Signal;HPM_P1;HPM_P2
2021/07/23 00:00:37;;;;;;;14.85;11.98;;;;;;;21.07;58.85;98698.84;5030792;28;20083;-50
2021/07/23 00:03:04;;;;;;;18.95;13.57;;;;;;;21.09;58.52;98691.34;5047395;28;20025;-50
2021/07/23 00:05:29;;;;;;;23.27;17.30;;;;;;;21.11;58.45;98692.69;5032009;28;20021;-50
2021/07/23 00:07:55;;;;;;;14.65;11.75;;;;;;;21.05;58.59;98698.31;5032006;28;20079;-50
2021/07/23 00:10:21;;;;;;;27.35;22.75;;;;;;;20.83;59.06;98691.38;5031994;28;20494;-49
2021/07/23 00:12:47;;;;;;;15.93;14.35;;;;;;;20.71;59.62;98682.84;5047263;28;20021;-50
2021/07/23 00:15:12;;;;;;;15.27;13.27;;;;;;;20.70;59.73;98684.69;5031937;28;20022;-50
2021/07/23 00:17:38;;;;;;;19.40;13.23;;;;;;;20.63;59.71;98686.81;5046652;28;20582;-50
2021/07/23 00:20:05;;;;;;;20.75;17.23;;;;;;;20.40;60.39;98688.09;5030551;28;20045;-50
2021/07/23 00:22:30;;;;;;;16.70;12.43;;;;;;;20.13;61.61;98689.13;5030534;28;20116;-50
2021/07/23 00:24:56;;;;;;;18.90;14.57;;;;;;;19.88;62.47;98689.84;5032085;28;20121;-50
2021/07/23 00:27:22;;;;;;;19.60;13.80;;;;;;;19.71;62.96;98676.72;5047068;28;20398;-50
2021/07/23 00:29:48;;;;;;;20.67;17.15;;;;;;;19.56;63.74;98679.31;5031743;28;20550;-50
2021/07/23 00:32:13;;;;;;;18.05;13.93;;;;;;;19.47;63.70;98684.28;5031691;28;20480;-50
2021/07/23 00:34:39;;;;;;;20.63;18.45;;;;;;;19.38;64.08;98682.38;5030463;28;20495;-50
2021/07/23 00:37:04;;;;;;;16.27;13.95;;;;;;;19.31;64.32;98677.28;5046957;28;20033;-50
2021/07/23 00:39:30;;;;;;;16.17;12.13;;;;;;;19.29;64.48;98674.09;5046941;28;20029;-50
2021/07/23 00:41:56;;;;;;;24.42;17.50;;;;;;;19.30;64.41;98678.38;5030289;28;20063;-50
2021/07/23 00:44:21;;;;;;;16.40;13.80;;;;;;;19.33;64.24;98677.84;5046930;28;20063;-50
2021/07/23 00:46:47;;;;;;;21.50;18.65;;;;;;;19.35;64.39;98684.50;5046824;28;20030;-50
2021/07/23 00:49:13;;;;;;;17.00;11.90;;;;;;;19.41;64.39;98674.69;5049830;28;20053;-50
2021/07/23 00:51:40;;;;;;;14.63;13.07;;;;;;;19.44;64.17;98686.69;5050909;28;20060;-50
2021/07/23 00:54:06;;;;;;;16.77;13.80;;;;;;;19.38;64.34;98675.22;5035541;28;20022;-50
2021/07/23 00:56:33;;;;;;;17.10;13.32;;;;;;;19.33;64.79;98680.50;5050840;28;20522;-50
2021/07/23 00:59:00;;;;;;;21.40;15.70;;;;;;;19.30;64.92;98675.69;5034165;28;20018;-50
2021/07/23 01:01:26;;;;;;;18.52;14.20;;;;;;;19.27;65.12;98670.88;5035390;28;20083;-51
2021/07/23 01:03:52;;;;;;;21.17;13.57;;;;;;;19.23;65.23;98669.78;5035404;28;20026;-50
2021/07/23 01:06:17;;;;;;;18.00;13.20;;;;;;;19.13;65.89;98665.22;5035308;28;20025;-49
2021/07/23 01:08:43;;;;;;;19.52;13.90;;;;;;;19.05;65.96;98666.47;5033917;28;20025;-50
2021/07/23 01:11:12;;;;;;;14.88;12.18;;;;;;;18.99;66.10;98664.06;5035258;28;20080;-50
2021/07/23 01:13:42;;;;;;;34.25;31.02;;;;;;;19.07;65.69;98669.69;5033895;28;20022;-50
2021/07/23 01:16:08;;;;;;;58.85;52.83;;;;;;;19.23;65.41;98667.13;5050205;28;20136;-50
2021/07/23 01:18:34;;;;;;;21.20;14.48;;;;;;;19.33;64.95;98670.66;5035128;28;20024;-50
2021/07/23 01:21:00;;;;;;;16.65;14.27;;;;;;;19.33;64.82;98665.31;5035301;28;20029;-50
2021/07/23 01:23:30;;;;;;;22.40;16.20;;;;;;;19.36;64.89;98669.34;5035068;28;20052;-50
2021/07/23 01:26:01;;;;;;;30.73;25.67;;;;;;;19.62;64.42;98662.28;5050161;28;20026;-50
2021/07/23 01:28:28;;;;;;;23.60;17.40;;;;;;;19.84;63.72;98662.13;5034932;28;20037;-50
2021/07/23 01:30:54;;;;;;;18.40;15.05;;;;;;;19.95;63.19;98655.75;5034840;28;20483;-50
2021/07/23 01:33:20;;;;;;;18.80;12.50;;;;;;;20.03;62.84;98657.13;5034896;28;20024;-51
2021/07/23 01:35:46;;;;;;;21.00;14.00;;;;;;;20.03;62.66;98659.78;5034787;28;20033;-50
2021/07/23 01:38:14;;;;;;;14.95;13.27;;;;;;;19.96;62.47;98659.25;5034740;28;20022;-50
2021/07/23 01:40:41;;;;;;;25.65;23.08;;;;;;;19.74;63.20;98659.44;5033385;28;20391;-50
2021/07/23 01:43:07;;;;;;;18.23;13.35;;;;;;;19.59;63.73;98651.34;5049978;28;20025;-50
2021/07/23 01:45:33;;;;;;;18.38;14.35;;;;;;;19.45;63.85;98657.13;5034504;28;20032;-51
2021/07/23 01:47:59;;;;;;;19.33;17.40;;;;;;;19.39;64.25;98657.38;5034529;28;20022;-50
2021/07/23 01:50:25;;;;;;;20.02;14.65;;;;;;;19.33;64.53;98652.03;5033201;28;20102;-50
2021/07/23 01:52:50;;;;;;;17.90;14.15;;;;;;;19.24;64.70;98653.59;5049796;28;20026;-50
2021/07/23 01:55:16;;;;;;;21.95;14.60;;;;;;;19.14;65.31;98656.19;5034414;28;20025;-50
2021/07/23 01:57:42;;;;;;;26.83;18.58;;;;;;;19.27;65.07;98650.38;5049724;28;20021;-50
2021/07/23 02:00:08;;;;;;;22.02;13.25;;;;;;;19.53;64.76;98653.19;5033426;28;20025;-50
2021/07/23 02:02:34;;;;;;;18.42;14.45;;;;;;;19.91;63.85;98651.22;5049606;28;20098;-51
2021/07/23 02:05:02;;;;;;;28.65;23.45;;;;;;;20.05;62.79;98659.53;5034286;28;20068;-50
2021/07/23 02:07:28;;;;;;;15.95;12.82;;;;;;;19.93;62.94;98659.75;5049415;28;20075;-51
2021/07/23 02:09:54;;;;;;;17.58;15.75;;;;;;;19.75;63.03;98661.81;5034169;28;20032;-51
2021/07/23 02:12:20;;;;;;;16.83;12.40;;;;;;;19.54;63.60;98654.81;5034125;28;20030;-51
2021/07/23 02:14:45;;;;;;;18.42;16.40;;;;;;;19.40;63.96;98657.13;5034078;28;20030;-50
2021/07/23 02:17:13;;;;;;;18.75;12.57;;;;;;;19.24;64.48;98650.91;5033817;28;20077;-50
2021/07/23 02:19:40;;;;;;;16.83;13.05;;;;;;;19.10;65.00;98649.78;5034200;28;20026;-51
2021/07/23 02:22:06;;;;;;;21.30;18.95;;;;;;;18.96;65.51;98654.75;5033918;28;20083;-50
2021/07/23 02:24:32;;;;;;;18.77;13.07;;;;;;;18.88;65.96;98653.34;5049222;28;20079;-50
2021/07/23 02:26:57;;;;;;;18.90;14.70;;;;;;;18.87;65.87;98650.94;5032479;28;20457;-50
2021/07/23 02:29:24;;;;;;;18.02;16.23;;;;;;;18.83;66.35;98645.31;5033863;28;20025;-50
2021/07/23 02:31:50;;;;;;;26.80;21.25;;;;;;;18.78;66.21;98645.28;5033723;28;20029;-50
2021/07/23 02:34:16;;;;;;;18.40;13.25;;;;;;;18.73;66.67;98647.88;5033752;28;20030;-50
2021/07/23 02:36:42;;;;;;;17.65;12.80;;;;;;;18.69;66.82;98639.63;5048931;28;20033;-50
2021/07/23 02:39:09;;;;;;;24.42;17.75;;;;;;;18.64;66.75;98646.75;5048942;28;20079;-51
2021/07/23 02:41:34;;;;;;;19.70;17.63;;;;;;;18.60;67.23;98649.13;5033554;28;20438;-50
2021/07/23 02:44:00;;;;;;;20.42;14.20;;;;;;;18.56;67.41;98640.03;5033510;28;20022;-50
2021/07/23 02:46:26;;;;;;;17.00;14.80;;;;;;;18.46;67.60;98639.97;5033426;28;20483;-50
2021/07/23 02:48:52;;;;;;;25.80;20.60;;;;;;;18.38;68.03;98635.91;5032114;28;20025;-50
2021/07/23 02:51:17;;;;;;;20.25;13.40;;;;;;;18.33;68.11;98636.69;5048728;28;20030;-50
2021/07/23 02:53:43;;;;;;;23.20;20.92;;;;;;;18.45;67.95;98635.69;5033376;28;20049;-51
2021/07/23 02:56:10;;;;;;;26.45;22.65;;;;;;;18.86;67.17;98644.03;5033304;28;20456;-50
2021/07/23 02:58:37;;;;;;;19.40;13.82;;;;;;;19.23;66.04;98638.66;5033267;28;20033;-50
2021/07/23 03:01:04;;;;;;;14.63;12.40;;;;;;;19.38;65.26;98626.50;5033204;28;20076;-50
2021/07/23 03:03:30;;;;;;;17.05;14.38;;;;;;;19.23;65.39;98637.88;5033165;28;20384;-50
2021/07/23 03:05:57;;;;;;;18.95;13.82;;;;;;;19.23;65.53;98636.00;5048291;28;20044;-50
2021/07/23 03:08:23;;;;;;;14.93;12.43;;;;;;;19.28;65.34;98637.91;5033129;28;20022;-50
2021/07/23 03:10:48;;;;;;;23.63;19.50;;;;;;;19.22;65.57;98637.06;5048276;28;20399;-50
2021/07/23 03:13:14;;;;;;;22.88;19.20;;;;;;;19.19;65.44;98640.25;5033009;28;20029;-50
2021/07/23 03:15:39;;;;;;;16.25;13.93;;;;;;;19.06;65.63;98630.06;5031334;28;20057;-50
2021/07/23 03:18:05;;;;;;;19.08;14.00;;;;;;;19.14;65.65;98629.59;5032945;28;20042;-50
2021/07/23 03:20:31;;;;;;;18.63;13.98;;;;;;;19.27;65.46;98623.00;5032825;28;20025;-50
2021/07/23 03:22:56;;;;;;;18.27;14.60;;;;;;;19.42;64.87;98632.88;5048130;28;20032;-51
2021/07/23 03:25:22;;;;;;;19.88;14.10;;;;;;;19.35;64.85;98620.63;5032646;28;20017;-50
2021/07/23 03:27:48;;;;;;;26.88;24.15;;;;;;;19.33;64.88;98616.63;5048247;28;20025;-50
2021/07/23 03:30:13;;;;;;;16.95;15.18;;;;;;;19.25;64.94;98614.47;5047971;28;20102;-50
2021/07/23 03:32:39;;;;;;;19.40;15.07;;;;;;;19.19;65.09;98618.16;5032603;28;20440;-50
2021/07/23 03:35:06;;;;;;;20.83;15.57;;;;;;;19.23;65.24;98617.38;5032591;28;20037;-51
2021/07/23 03:37:31;;;;;;;19.80;14.27;;;;;;;19.36;64.71;98616.91;5032600;28;20030;-50
2021/07/23 03:39:57;;;;;;;31.17;27.38;;;;;;;19.32;64.76;98620.38;5032500;28;20144;-50
2021/07/23 03:42:23;;;;;;;20.00;15.25;;;;;;;19.21;65.12;98614.16;5032466;28;20021;-50
2021/07/23 03:44:48;;;;;;;23.92;16.30;;;;;;;19.22;64.92;98609.69;5032416;28;20025;-51
2021/07/23 03:47:15;;;;;;;17.85;13.18;;;;;;;19.18;65.20;98611.25;5032349;28;20029;-50
2021/07/23 03:49:42;;;;;;;17.85;13.65;;;;;;;18.97;65.50;98613.78;5031038;28;20022;-50
2021/07/23 03:52:07;;;;;;;15.63;12.82;;;;;;;18.72;66.02;98611.72;5032327;28;20032;-50
2021/07/23 03:54:33;;;;;;;16.42;14.32;;;;;;;18.53;66.72;98612.13;5032291;28;20017;-50
2021/07/23 03:57:02;;;;;;;17.13;13.10;;;;;;;18.46;67.07;98606.22;5032222;28;20033;-50
2021/07/23 03:59:28;;;;;;;16.15;14.40;;;;;;;18.43;67.48;98597.94;5047467;28;20457;-50
2021/07/23 04:01:53;;;;;;;52.92;47.75;;;;;;;18.32;67.91;98600.50;5032137;28;20025;-50
2021/07/23 04:04:20;;;;;;;22.52;20.17;;;;;;;18.23;68.19;98603.88;5032150;28;20517;-50
2021/07/23 04:06:46;;;;;;;39.53;35.58;;;;;;;18.12;68.70;98598.47;5031957;28;20079;-50
2021/07/23 04:09:11;;;;;;;17.77;13.82;;;;;;;18.06;69.10;98601.34;5047401;28;20021;-49
2021/07/23 04:11:47;;;;;;;17.60;13.57;;;;;;;17.99;69.13;98593.59;5031926;28;20022;-50
2021/07/23 04:14:13;;;;;;;18.85;14.10;;;;;;;17.95;69.20;98597.81;5047309;28;20038;-49
2021/07/23 04:16:38;;;;;;;24.15;17.70;;;;;;;17.94;69.21;98594.31;5031672;28;20037;-50
2021/07/23 04:19:04;;;;;;;25.20;19.90;;;;;;;17.99;69.40;98595.41;5047207;28;20407;-50
2021/07/23 04:21:30;;;;;;;15.73;12.95;;;;;;;17.96;69.37;98592.22;5031910;28;20045;-49
2021/07/23 04:23:56;;;;;;;25.88;23.17;;;;;;;18.03;69.30;98596.53;5031656;28;20087;-50
2021/07/23 04:26:21;;;;;;;20.73;15.15;;;;;;;18.23;68.85;98593.25;5031746;28;20018;-50
2021/07/23 04:28:47;;;;;;;18.92;13.52;;;;;;;18.60;68.08;98587.97;5031834;28;20137;-50
2021/07/23 04:31:13;;;;;;;27.65;25.05;;;;;;;18.88;67.12;98588.72;5031738;28;20414;-50
2021/07/23 04:33:38;;;;;;;20.73;13.98;;;;;;;19.14;66.07;98593.13;5031685;28;20032;-50
2021/07/23 04:36:04;;;;;;;23.38;15.88;;;;;;;19.16;65.67;98593.66;5031747;28;20048;-50
2021/07/23 04:38:29;;;;;;;20.30;13.65;;;;;;;19.13;65.52;98596.84;5046959;28;20557;-50
2021/07/23 04:40:55;;;;;;;19.58;12.23;;;;;;;19.12;65.79;98589.13;5031656;28;20025;-50
2021/07/23 04:43:21;;;;;;;20.58;14.93;;;;;;;19.26;65.36;98587.59;5031701;28;20026;-50
2021/07/23 04:45:46;;;;;;;19.55;14.10;;;;;;;19.61;64.64;98585.34;5030238;28;20048;-50
2021/07/23 04:48:12;;;;;;;66.90;60.15;;;;;;;20.40;63.94;98578.81;5046909;28;20116;-51
2021/07/23 04:50:38;;;;;;;40.90;36.25;;;;;;;21.28;64.25;98574.13;5031788;28;20037;-50
2021/07/23 04:53:03;;;;;;;24.55;16.38;;;;;;;21.80;63.05;98572.81;5031599;28;20033;-50
2021/07/23 04:55:29;;;;;;;40.10;31.13;;;;;;;22.06;62.65;98573.47;5031533;28;20051;-51
2021/07/23 04:57:55;;;;;;;26.33;17.27;;;;;;;22.14;61.45;98567.50;5031502;28;20030;-50
2021/07/23 05:00:20;;;;;;;21.55;15.23;;;;;;;21.77;59.85;98569.91;5031467;28;20018;-51
2021/07/23 05:02:53;;;;;;;24.92;15.05;;;;;;;21.29;61.15;98579.19;5031482;28;20395;-50
2021/07/23 05:05:22;;;;;;;43.95;33.25;;;;;;;21.25;61.70;98580.00;5046640;28;20503;-51
2021/07/23 05:07:49;;;;;;;41.88;37.10;;;;;;;21.51;60.91;98572.72;5031341;28;20041;-50
2021/07/23 05:10:18;;;;;;;30.52;20.10;;;;;;;21.92;59.62;98578.63;5030094;28;20107;-51
2021/07/23 05:12:45;;;;;;;17.60;13.65;;;;;;;22.45;57.55;98574.53;5031397;28;20033;-51
2021/07/23 05:15:11;;;;;;;23.85;15.80;;;;;;;22.81;56.23;98571.50;5030029;28;20029;-50
2021/07/23 05:17:40;;;;;;;34.63;19.48;;;;;;;23.25;54.33;98573.19;5031057;28;20046;-50
2021/07/23 05:20:09;;;;;;;16.75;12.15;;;;;;;23.75;53.46;98564.78;5031317;28;20025;-50
2021/07/23 05:22:36;;;;;;;20.75;13.23;;;;;;;24.46;52.05;98563.69;5031300;28;20025;-50
2021/07/23 05:25:02;;;;;;;30.13;24.30;;;;;;;25.34;52.65;98564.81;5031260;28;20036;-50
2021/07/23 05:27:30;;;;;;;23.92;18.10;;;;;;;25.88;51.05;98560.41;5031170;28;20022;-50
2021/07/23 05:29:55;;;;;;;28.13;17.70;;;;;;;26.30;50.02;98566.41;5031236;28;20523;-51
2021/07/23 05:32:21;;;;;;;32.30;12.48;;;;;;;26.68;49.58;98553.34;5031142;28;20017;-51
2021/07/23 05:34:47;;;;;;;49.10;39.70;;;;;;;27.06;46.94;98552.06;5046908;28;20118;-51
2021/07/23 05:37:12;;;;;;;75.70;57.67;;;;;;;27.11;46.06;98554.63;5034782;28;20045;-50
2021/07/23 05:39:42;;;;;;;58.40;52.20;;;;;;;27.53;45.09;98556.94;5034624;28;20040;-51
2021/07/23 05:42:09;;;;;;;31.45;18.75;;;;;;;28.00;43.54;98549.84;5034690;28;20071;-50
2021/07/23 05:44:34;;;;;;;21.95;14.18;;;;;;;28.53;41.93;98552.47;5034702;28;20533;-50
2021/07/23 05:47:03;;;;;;;29.65;15.13;;;;;;;29.03;40.48;98551.78;5049836;28;20025;-50
2021/07/23 05:49:29;;;;;;;19.27;12.85;;;;;;;29.13;39.48;98553.34;5049919;28;20025;-51
2021/07/23 05:51:55;;;;;;;27.63;17.38;;;;;;;29.11;39.75;98548.28;5034550;28;20423;-51
2021/07/23 05:54:21;;;;;;;18.40;13.10;;;;;;;29.26;38.85;98545.00;5034566;28;20438;-51
2021/07/23 05:56:46;;;;;;;16.40;12.95;;;;;;;28.91;39.32;98549.78;5034427;28;20022;-51
2021/07/23 05:59:13;;;;;;;22.15;14.20;;;;;;;28.80;39.71;98543.94;5049697;28;20029;-51
2021/07/23 06:01:39;;;;;;;20.25;13.80;;;;;;;28.78;39.67;98538.09;5049618;28;20029;-50
2021/07/23 06:04:04;;;;;;;19.73;13.65;;;;;;;28.85;39.90;98543.75;5034305;28;20032;-51
2021/07/23 06:06:30;;;;;;;22.13;15.68;;;;;;;29.46;39.32;98539.97;5034144;28;20105;-51
2021/07/23 06:08:58;;;;;;;23.45;14.68;;;;;;;30.17;37.75;98536.34;5034272;28;20033;-50
2021/07/23 06:11:24;;;;;;;25.13;15.45;;;;;;;30.97;36.71;98534.34;5034126;28;20014;-50
2021/07/23 06:13:49;;;;;;;34.88;17.92;;;;;;;31.76;35.35;98534.78;5034101;28;20028;-50
2021/07/23 06:16:15;;;;;;;35.83;15.73;;;;;;;32.66;33.74;98536.38;5033820;28;20045;-51
2021/07/23 06:18:41;;;;;;;28.08;14.30;;;;;;;33.51;32.11;98537.56;5034078;28;20447;-50
2021/07/23 06:21:07;;;;;;;14.27;11.60;;;;;;;34.19;30.82;98533.50;5033982;28;20091;-51
2021/07/23 06:23:33;;;;;;;20.15;13.70;;;;;;;34.63;30.12;98540.47;5033950;28;20024;-51
2021/07/23 06:26:06;;;;;;;20.98;13.00;;;;;;;34.96;29.89;98526.22;5033871;28;20108;-50
2021/07/23 06:28:32;;;;;;;32.75;13.75;;;;;;;35.23;29.53;98539.09;5033848;28;20086;-50
2021/07/23 06:30:59;;;;;;;30.17;15.27;;;;;;;35.33;29.51;98541.16;5033760;28;20025;-50
2021/07/23 06:33:24;;;;;;;27.20;14.00;;;;;;;35.48;29.58;98539.44;5048992;28;20028;-51
2021/07/23 06:35:50;;;;;;;32.70;14.15;;;;;;;36.02;28.24;98546.31;5033671;28;20029;-51
2021/07/23 06:38:16;;;;;;;24.45;19.30;;;;;;;36.21;28.04;98541.84;5033747;28;20032;-51
2021/07/23 06:40:41;;;;;;;21.08;14.10;;;;;;;36.45;27.55;98545.97;5033608;28;20057;-51
2021/07/23 06:43:07;;;;;;;19.42;13.45;;;;;;;36.83;27.25;98546.72;5048930;28;20053;-50
2021/07/23 06:45:33;;;;;;;67.43;15.77;;;;;;;37.03;27.01;98537.06;5031823;28;20084;-51
2021/07/23 06:47:58;;;;;;;34.90;13.93;;;;;;;37.17;26.77;98550.88;5032163;28;20025;-51
2021/07/23 06:50:24;;;;;;;29.35;12.50;;;;;;;37.17;26.94;98547.34;5048741;28;20025;-51
2021/07/23 06:52:49;;;;;;;21.88;11.65;;;;;;;37.20;27.05;98534.84;5048766;28;20021;-51
2021/07/23 06:55:15;;;;;;;36.40;15.77;;;;;;;37.75;25.89;98540.19;5033353;28;20030;-51
2021/07/23 06:57:41;;;;;;;26.27;13.45;;;;;;;38.09;26.12;98539.91;5033268;28;20041;-50
2021/07/23 07:00:07;;;;;;;27.70;15.02;;;;;;;38.34;25.94;98529.78;5033269;28;20509;-50
2021/07/23 07:02:33;;;;;;;20.58;15.50;;;;;;;38.23;24.91;98539.94;5033199;28;20032;-51
2021/07/23 07:04:59;;;;;;;29.90;13.68;;;;;;;38.75;24.94;98537.63;5048788;28;20034;-51
2021/07/23 07:07:25;;;;;;;21.15;12.40;;;;;;;38.96;24.22;98542.31;5032942;28;20483;-51
2021/07/23 07:09:51;;;;;;;18.58;12.93;;;;;;;38.75;23.86;98534.88;5033050;28;20018;-51
2021/07/23 07:12:17;;;;;;;18.73;16.00;;;;;;;39.00;23.81;98534.13;5033049;28;20104;-51
2021/07/23 07:14:43;;;;;;;17.88;13.02;;;;;;;39.37;23.41;98537.53;5033034;28;20101;-51
2021/07/23 07:17:08;;;;;;;28.38;13.07;;;;;;;39.47;23.72;98532.03;5032725;28;20053;-51
2021/07/23 07:19:34;;;;;;;37.08;18.40;;;;;;;39.70;23.14;98528.00;5048158;28;20026;-51
2021/07/23 07:22:00;;;;;;;23.50;12.38;;;;;;;39.96;23.16;98528.66;5032842;28;20491;-51
2021/07/23 07:24:25;;;;;;;27.98;13.70;;;;;;;40.21;22.62;98528.53;5047982;28;20033;-51
2021/07/23 07:26:54;;;;;;;20.73;12.60;;;;;;;40.09;22.54;98527.03;5032667;28;20060;-51
2021/07/23 07:29:20;;;;;;;25.63;12.82;;;;;;;39.57;22.63;98533.16;5032713;28;20049;-51
2021/07/23 07:31:46;;;;;;;26.45;13.35;;;;;;;39.42;22.73;98529.72;5032585;28;20107;-50
2021/07/23 07:34:11;;;;;;;19.95;12.82;;;;;;;39.03;23.42;98525.06;5032644;28;20063;-51
2021/07/23 07:36:37;;;;;;;26.90;13.75;;;;;;;38.38;24.29;98520.78;5031222;28;20503;-51
2021/07/23 07:39:04;;;;;;;26.48;14.70;;;;;;;38.16;24.90;98521.53;5047826;28;20116;-51
2021/07/23 07:41:30;;;;;;;22.65;15.50;;;;;;;38.01;24.77;98524.59;5031101;28;20507;-50
2021/07/23 07:43:56;;;;;;;27.27;13.05;;;;;;;38.22;24.88;98508.22;5032482;28;20048;-51
2021/07/23 07:46:22;;;;;;;25.45;14.88;;;;;;;38.43;25.03;98512.16;5032308;28;20025;-53
2021/07/23 07:48:48;;;;;;;21.67;13.25;;;;;;;38.80;25.09;98514.50;5032306;28;20022;-53
2021/07/23 07:51:17;;;;;;;18.73;12.85;;;;;;;38.87;24.92;98514.50;5032370;28;20068;-52
2021/07/23 07:53:43;;;;;;;27.48;16.00;;;;;;;39.10;24.53;98508.59;5032335;28;20021;-53
2021/07/23 07:56:11;;;;;;;21.35;12.90;;;;;;;39.37;23.67;98512.81;5032256;28;20029;-53
2021/07/23 07:58:37;;;;;;;21.15;11.85;;;;;;;39.20;24.11;98506.19;5031531;28;20031;-53
2021/07/23 08:01:10;;;;;;;23.92;13.13;;;;;;;39.21;24.41;98496.78;5032144;28;20033;-53
2021/07/23 08:03:37;;;;;;;19.77;12.25;;;;;;;39.40;24.22;98496.34;5032171;28;20030;-53
2021/07/23 08:06:34;;;;;;;25.25;12.18;;;;;;;39.47;24.23;98490.81;5032031;28;20079;-53
2021/07/23 08:09:05;;;;;;;20.15;11.32;;;;;;;40.25;23.33;98494.31;5047337;28;20075;-53
2021/07/23 08:11:35;;;;;;;29.67;12.95;;;;;;;41.13;22.17;98493.91;5032009;28;20399;-53
2021/07/23 08:14:01;;;;;;;15.40;11.10;;;;;;;41.96;21.48;98484.59;5032112;28;20088;-53
2021/07/23 08:16:31;;;;;;;26.58;12.27;;;;;;;41.89;21.36;98490.19;5031695;28;20518;-53
2021/07/23 08:19:05;;;;;;;21.02;12.63;;;;;;;41.94;21.64;98488.94;5047073;28;20073;-53
2021/07/23 08:21:32;;;;;;;29.25;12.38;;;;;;;42.31;21.22;98482.47;5047189;28;20557;-53
2021/07/23 08:24:00;;;;;;;14.50;10.90;;;;;;;42.22;21.30;98483.03;5031902;28;20018;-52
2021/07/23 08:26:26;;;;;;;21.67;12.27;;;;;;;42.08;21.33;98470.25;5031721;28;20033;-53
2021/07/23 08:28:52;;;;;;;19.30;12.25;;;;;;;42.08;21.36;98467.50;5031865;28;20514;-54
2021/07/23 08:31:18;;;;;;;17.38;11.85;;;;;;;41.92;21.76;98470.84;5031693;28;20108;-52
2021/07/23 08:33:44;;;;;;;21.98;12.52;;;;;;;42.15;21.55;98469.34;5031804;28;20033;-53
2021/07/23 08:36:10;;;;;;;16.77;11.40;;;;;;;42.56;21.05;98457.25;5031775;28;20538;-53
2021/07/23 08:38:36;;;;;;;21.08;11.43;;;;;;;42.67;20.81;98457.03;5046977;28;20507;-52
2021/07/23 08:41:03;;;;;;;13.55;11.35;;;;;;;42.45;20.71;98451.91;5031761;28;20104;-53
2021/07/23 08:43:31;;;;;;;18.02;11.98;;;;;;;42.24;21.27;98443.97;5031645;28;20045;-53
2021/07/23 08:46:00;;;;;;;12.27;10.90;;;;;;;42.04;21.73;98454.97;5031587;28;20491;-53
2021/07/23 08:48:25;;;;;;;17.70;11.48;;;;;;;41.64;21.71;98460.25;5031673;28;20522;-53
2021/07/23 08:50:51;;;;;;;15.77;12.65;;;;;;;42.03;21.49;98445.13;5031599;28;20028;-52
2021/07/23 08:53:17;;;;;;;14.60;11.57;;;;;;;42.67;20.78;98446.78;5031537;28;20032;-53
2021/07/23 08:55:43;;;;;;;15.10;11.07;;;;;;;43.15;20.35;98441.16;5031617;28;20022;-53
2021/07/23 08:58:10;;;;;;;16.27;11.10;;;;;;;43.49;20.10;98436.06;5031571;28;20021;-53
2021/07/23 09:00:37;;;;;;;12.95;11.52;;;;;;;43.63;19.90;98437.75;5031767;28;20068;-53
2021/07/23 09:03:08;;;;;;;15.77;11.88;;;;;;;43.63;19.63;98434.97;5031421;28;20025;-53
2021/07/23 09:05:41;;;;;;;12.23;10.93;;;;;;;44.04;19.26;98432.84;5031363;28;20104;-53
2021/07/23 09:08:18;;;;;;;17.35;10.80;;;;;;;44.59;19.15;98430.28;5031463;28;20049;-53
2021/07/23 09:10:45;;;;;;;15.45;11.18;;;;;;;45.15;18.44;98429.16;5035023;28;20105;-54
2021/07/23 09:13:20;;;;;;;15.02;10.73;;;;;;;45.15;18.07;98421.59;5033913;28;20048;-53
2021/07/23 09:15:46;;;;;;;16.67;10.73;;;;;;;45.17;18.14;98426.72;5050370;28;20427;-54
2021/07/23 09:18:41;;;;;;;20.98;11.68;;;;;;;45.34;18.15;98414.34;5035256;28;20112;-53
2021/07/23 09:21:09;;;;;;;16.73;10.70;;;;;;;44.93;18.68;98412.38;5035212;28;20029;-53
2021/07/23 09:23:38;;;;;;;13.05;11.23;;;;;;;44.13;19.09;98410.94;5035129;28;20045;-52
2021/07/23 09:26:10;;;;;;;16.23;11.13;;;;;;;43.39;20.08;98403.94;5033716;28;20025;-53
2021/07/23 09:28:38;;;;;;;20.75;11.10;;;;;;;43.59;19.99;98400.31;5035015;28;20022;-53
2021/07/23 09:31:05;;;;;;;20.88;12.45;;;;;;;43.49;19.82;98396.63;5035009;28;20481;-53
2021/07/23 09:33:40;;;;;;;16.80;10.65;;;;;;;42.93;20.11;98402.16;5050247;28;20021;-53
2021/07/23 09:36:08;;;;;;;14.80;10.88;;;;;;;42.15;21.25;98400.41;5034890;28;20044;-53
2021/07/23 09:38:36;;;;;;;12.38;10.70;;;;;;;42.29;21.04;98404.88;5050114;28;20029;-53
2021/07/23 09:41:03;;;;;;;22.08;11.50;;;;;;;42.42;21.13;98403.06;5034765;28;20021;-52
2021/07/23 09:43:32;;;;;;;13.73;11.13;;;;;;;43.06;20.50;98395.53;5034727;28;20017;-54
2021/07/23 09:46:17;;;;;;;12.82;10.82;;;;;;;44.04;20.02;98381.06;5034623;28;20022;-53
2021/07/23 09:48:47;;;;;;;13.57;10.60;;;;;;;44.12;19.69;98378.16;5024051;28;20121;-53
2021/07/23 09:51:13;;;;;;;18.63;11.05;;;;;;;44.91;19.13;98382.34;5049813;28;20037;-52
2021/07/23 09:53:39;;;;;;;16.58;11.20;;;;;;;45.32;18.82;98379.97;5034525;28;20025;-52
2021/07/23 09:56:07;;;;;;;17.75;11.10;;;;;;;44.85;19.44;98371.00;5049917;28;20399;-52
2021/07/23 09:58:44;;;;;;;17.05;10.57;;;;;;;44.37;19.22;98367.19;5034452;28;20017;-53
2021/07/23 10:01:22;;;;;;;32.35;12.45;;;;;;;44.08;19.70;98364.41;5034349;28;20105;-53
2021/07/23 10:03:54;;;;;;;24.90;12.35;;;;;;;44.45;19.64;98359.47;5034361;28;20018;-53
2021/07/23 10:06:27;;;;;;;14.85;10.63;;;;;;;45.11;19.03;98356.44;5049505;28;20448;-52
2021/07/23 10:09:00;;;;;;;;;;;;;;;45.29;19.13;98342.84;5033393;28;20426;-53
2021/07/23 10:11:27;;;;;;;18.02;11.43;;;;;;;45.24;18.96;98343.38;5034275;28;19913;-53
2021/07/23 10:13:56;;;;;;;16.45;11.93;;;;;;;44.98;19.27;98348.91;5049434;28;20025;-53
2021/07/23 10:16:22;;;;;;;20.77;11.60;;;;;;;44.91;19.45;98342.81;5033858;28;20132;-53
2021/07/23 10:18:52;;;;;;;20.13;10.82;;;;;;;44.77;19.02;98341.97;5034125;28;20484;-54
2021/07/23 10:21:18;;;;;;;20.45;13.52;;;;;;;45.10;19.42;98333.50;5033337;28;20079;-53
2021/07/23 10:23:46;;;;;;;13.27;11.13;;;;;;;45.48;18.72;98329.19;5034029;28;20507;-53
2021/07/23 10:26:15;;;;;;;12.57;11.20;;;;;;;44.87;18.22;98320.75;5049127;28;20117;-53
2021/07/23 10:28:43;;;;;;;17.60;11.07;;;;;;;44.18;19.38;98321.09;5033912;28;20046;-52
2021/07/23 10:31:21;;;;;;;13.55;10.90;;;;;;;44.04;18.90;98313.94;5049071;28;20025;-53
2021/07/23 10:33:54;;;;;;;15.00;10.93;;;;;;;43.64;18.96;98305.84;5033769;28;20024;-53
2021/07/23 10:36:26;;;;;;;28.50;13.45;;;;;;;43.39;19.96;98301.72;5033748;28;20394;-53
2021/07/23 10:39:07;;;;;;;18.20;10.30;;;;;;;43.13;19.85;98297.19;5033783;28;20022;-53
2021/07/23 10:42:02;;;;;;;11.00;9.88;;;;;;;42.79;20.27;98295.53;5033680;28;20029;-53
2021/07/23 10:44:28;;;;;;;21.08;12.20;;;;;;;42.62;23.79;98300.22;5025269;28;20040;-52
2021/07/23 10:46:56;;;;;;;13.25;11.13;;;;;;;42.11;21.85;98300.41;5033410;28;20025;-52
2021/07/23 10:49:27;;;;;;;18.23;11.88;;;;;;;41.91;21.46;98290.09;5033483;28;20033;-54
2021/07/23 10:51:59;;;;;;;16.80;11.95;;;;;;;41.98;21.40;98288.41;5033430;28;20033;-52
2021/07/23 10:54:27;;;;;;;15.63;11.45;;;;;;;41.55;21.92;98276.13;5033471;28;20025;-53
2021/07/23 10:56:56;;;;;;;21.83;12.35;;;;;;;40.76;22.80;98279.28;5033335;28;20025;-53
2021/07/23 10:59:40;;;;;;;12.63;10.93;;;;;;;39.07;24.14;98287.06;5033281;28;20495;-53
2021/07/23 11:02:15;;;;;;;21.30;13.18;;;;;;;38.02;26.28;98276.84;5033258;28;20025;-53
2021/07/23 11:04:51;;;;;;;18.92;12.43;;;;;;;38.43;26.24;98270.88;5033169;28;20107;-53
2021/07/23 11:07:23;;;;;;;21.38;11.70;;;;;;;39.18;25.36;98269.75;5032979;28;20487;-54
2021/07/23 11:09:49;;;;;;;13.45;10.20;;;;;;;38.99;24.35;98262.81;5033173;28;20053;-53
2021/07/23 11:12:27;;;;;;;12.05;10.85;;;;;;;38.55;25.66;98263.00;5048301;28;20130;-53
2021/07/23 11:15:05;;;;;;;13.98;11.57;;;;;;;37.83;26.79;98262.38;5032991;28;20034;-53
2021/07/23 11:17:47;;;;;;;17.60;11.45;;;;;;;38.42;25.91;98258.34;5032782;28;20057;-53